sensor_id;sensor_type;location;lat;lon;timestamp;P1;durP1;ratioP1;P2;durP2;ratioP2
72590;SDS011;60625;51.212;5.952;2022-07-30T00:04:58;7.10;;;2.90;;
72590;SDS011;60625;51.212;5.952;2022-07-30T00:09:59;11.10;;;3.40;;
72590;SDS011;60625;51.212;5.952;2022-07-30T00:14:59;9.00;;;3.40;;
72590;SDS011;60625;51.212;5.952;2022-07-30T00:20:00;8.80;;;2.90;;
72590;SDS011;60625;51.212;5.952;2022-07-30T00:25:01;7.80;;;3.60;;
72590;SDS011;60625;51.212;5.952;2022-07-30T00:30:03;8.90;;;2.90;;
72590;SDS011;60625;51.212;5.952;2022-07-30T00:35:05;8.10;;;2.90;;
72590;SDS011;60625;51.212;5.952;2022-07-30T00:40:07;7.40;;;3.70;;
72590;SDS011;60625;51.212;5.952;2022-07-30T00:45:09;6.90;;;3.20;;
72590;SDS011;60625;51.212;5.952;2022-07-30T00:50:13;11.40;;;3.10;;
72590;SDS011;60625;51.212;5.952;2022-07-30T00:55:14;8.40;;;3.70;;
72590;SDS011;60625;51.212;5.952;2022-07-30T01:00:16;10.80;;;3.40;;
72590;SDS011;60625;51.212;5.952;2022-07-30T01:05:17;8.00;;;4.10;;
72590;SDS011;60625;51.212;5.952;2022-07-30T01:10:18;8.40;;;3.20;;
72590;SDS011;60625;51.212;5.952;2022-07-30T01:15:18;9.50;;;3.20;;
72590;SDS011;60625;51.212;5.952;2022-07-30T01:20:44;10.90;;;3.40;;
72590;SDS011;60625;51.212;5.952;2022-07-30T01:25:56;9.40;;;3.10;;
72590;SDS011;60625;51.212;5.952;2022-07-30T01:31:00;7.80;;;3.40;;
72590;SDS011;60625;51.212;5.952;2022-07-30T01:36:02;7.90;;;3.80;;
72590;SDS011;60625;51.212;5.952;2022-07-30T01:41:05;7.60;;;3.30;;
72590;SDS011;60625;51.212;5.952;2022-07-30T01:46:08;8.40;;;3.50;;
72590;SDS011;60625;51.212;5.952;2022-07-30T01:51:11;12.90;;;3.70;;
72590;SDS011;60625;51.212;5.952;2022-07-30T01:56:18;7.50;;;3.20;;
72590;SDS011;60625;51.212;5.952;2022-07-30T02:01:22;9.40;;;3.50;;
72590;SDS011;60625;51.212;5.952;2022-07-30T02:06:31;15.30;;;4.20;;
72590;SDS011;60625;51.212;5.952;2022-07-30T02:11:46;10.90;;;4.30;;
72590;SDS011;60625;51.212;5.952;2022-07-30T02:17:08;8.50;;;3.90;;
72590;SDS011;60625;51.212;5.952;2022-07-30T02:22:15;10.00;;;4.10;;
72590;SDS011;60625;51.212;5.952;2022-07-30T02:27:22;11.90;;;4.10;;
72590;SDS011;60625;51.212;5.952;2022-07-30T02:32:26;9.10;;;3.40;;
72590;SDS011;60625;51.212;5.952;2022-07-30T02:37:30;9.90;;;4.70;;
72590;SDS011;60625;51.212;5.952;2022-07-30T02:42:35;7.20;;;3.60;;
72590;SDS011;60625;51.212;5.952;2022-07-30T02:47:37;10.40;;;4.10;;
72590;SDS011;60625;51.212;5.952;2022-07-30T02:52:39;12.40;;;4.80;;
72590;SDS011;60625;51.212;5.952;2022-07-30T02:57:41;12.40;;;5.10;;
72590;SDS011;60625;51.212;5.952;2022-07-30T03:02:43;12.20;;;4.50;;
72590;SDS011;60625;51.212;5.952;2022-07-30T03:07:45;10.30;;;4.40;;
72590;SDS011;60625;51.212;5.952;2022-07-30T03:12:47;13.60;;;4.70;;
72590;SDS011;60625;51.212;5.952;2022-07-30T03:17:51;12.40;;;4.70;;
72590;SDS011;60625;51.212;5.952;2022-07-30T03:22:56;11.20;;;5.00;;
72590;SDS011;60625;51.212;5.952;2022-07-30T03:28:00;14.80;;;5.20;;
72590;SDS011;60625;51.212;5.952;2022-07-30T03:33:01;10.70;;;5.00;;
72590;SDS011;60625;51.212;5.952;2022-07-30T03:38:03;12.30;;;5.50;;
72590;SDS011;60625;51.212;5.952;2022-07-30T03:43:06;12.10;;;5.10;;
72590;SDS011;60625;51.212;5.952;2022-07-30T03:48:09;13.70;;;6.20;;
72590;SDS011;60625;51.212;5.952;2022-07-30T03:53:13;17.80;;;6.70;;
72590;SDS011;60625;51.212;5.952;2022-07-30T03:58:37;15.20;;;5.80;;
72590;SDS011;60625;51.212;5.952;2022-07-30T04:03:38;18.20;;;7.20;;
72590;SDS011;60625;51.212;5.952;2022-07-30T04:08:40;16.50;;;7.20;;
72590;SDS011;60625;51.212;5.952;2022-07-30T04:13:40;16.10;;;6.50;;
72590;SDS011;60625;51.212;5.952;2022-07-30T04:18:47;15.30;;;7.60;;
72590;SDS011;60625;51.212;5.952;2022-07-30T04:23:51;22.90;;;7.80;;
72590;SDS011;60625;51.212;5.952;2022-07-30T04:28:52;20.10;;;7.80;;
72590;SDS011;60625;51.212;5.952;2022-07-30T04:33:53;18.30;;;8.50;;
72590;SDS011;60625;51.212;5.952;2022-07-30T04:39:02;18.40;;;7.90;;
72590;SDS011;60625;51.212;5.952;2022-07-30T04:44:03;15.30;;;7.60;;
72590;SDS011;60625;51.212;5.952;2022-07-30T04:49:05;12.90;;;7.90;;
72590;SDS011;60625;51.212;5.952;2022-07-30T04:54:08;13.80;;;7.60;;
72590;SDS011;60625;51.212;5.952;2022-07-30T04:59:10;18.70;;;8.70;;
72590;SDS011;60625;51.212;5.952;2022-07-30T05:04:11;14.20;;;8.70;;
72590;SDS011;60625;51.212;5.952;2022-07-30T05:09:14;16.90;;;9.30;;
72590;SDS011;60625;51.212;5.952;2022-07-30T05:14:15;15.70;;;10.00;;
72590;SDS011;60625;51.212;5.952;2022-07-30T05:19:16;18.90;;;10.40;;
72590;SDS011;60625;51.212;5.952;2022-07-30T05:24:18;19.80;;;9.10;;
72590;SDS011;60625;51.212;5.952;2022-07-30T05:29:27;18.00;;;10.20;;
72590;SDS011;60625;51.212;5.952;2022-07-30T05:34:31;18.10;;;9.80;;
72590;SDS011;60625;51.212;5.952;2022-07-30T05:39:32;21.00;;;11.10;;
72590;SDS011;60625;51.212;5.952;2022-07-30T05:45:05;16.30;;;10.30;;
72590;SDS011;60625;51.212;5.952;2022-07-30T05:50:07;21.00;;;12.00;;
72590;SDS011;60625;51.212;5.952;2022-07-30T05:55:09;21.90;;;11.80;;
72590;SDS011;60625;51.212;5.952;2022-07-30T06:00:27;19.90;;;11.30;;
72590;SDS011;60625;51.212;5.952;2022-07-30T06:05:28;27.20;;;11.60;;
72590;SDS011;60625;51.212;5.952;2022-07-30T06:10:32;20.00;;;11.90;;
72590;SDS011;60625;51.212;5.952;2022-07-30T06:15:33;22.40;;;12.30;;
72590;SDS011;60625;51.212;5.952;2022-07-30T06:20:33;19.70;;;12.60;;
72590;SDS011;60625;51.212;5.952;2022-07-30T06:26:09;20.00;;;10.20;;
72590;SDS011;60625;51.212;5.952;2022-07-30T06:31:10;20.20;;;11.90;;
72590;SDS011;60625;51.212;5.952;2022-07-30T06:36:11;15.90;;;9.20;;
72590;SDS011;60625;51.212;5.952;2022-07-30T06:41:21;20.90;;;11.80;;
72590;SDS011;60625;51.212;5.952;2022-07-30T06:46:25;22.60;;;11.30;;
72590;SDS011;60625;51.212;5.952;2022-07-30T06:51:26;20.70;;;11.00;;
72590;SDS011;60625;51.212;5.952;2022-07-30T06:56:27;18.80;;;11.00;;
72590;SDS011;60625;51.212;5.952;2022-07-30T07:01:31;16.20;;;9.30;;
72590;SDS011;60625;51.212;5.952;2022-07-30T07:06:31;14.80;;;9.90;;
72590;SDS011;60625;51.212;5.952;2022-07-30T07:11:32;19.50;;;9.10;;
72590;SDS011;60625;51.212;5.952;2022-07-30T07:16:35;14.10;;;7.20;;
72590;SDS011;60625;51.212;5.952;2022-07-30T07:21:52;11.60;;;7.40;;
72590;SDS011;60625;51.212;5.952;2022-07-30T07:26:53;14.40;;;8.10;;
72590;SDS011;60625;51.212;5.952;2022-07-30T07:31:53;14.40;;;8.40;;
72590;SDS011;60625;51.212;5.952;2022-07-30T07:36:54;13.50;;;8.00;;
72590;SDS011;60625;51.212;5.952;2022-07-30T07:41:56;11.70;;;7.00;;
72590;SDS011;60625;51.212;5.952;2022-07-30T07:46:58;13.30;;;8.30;;
72590;SDS011;60625;51.212;5.952;2022-07-30T07:52:00;11.70;;;6.50;;
72590;SDS011;60625;51.212;5.952;2022-07-30T07:57:01;15.40;;;8.40;;
72590;SDS011;60625;51.212;5.952;2022-07-30T08:02:14;11.80;;;7.10;;
72590;SDS011;60625;51.212;5.952;2022-07-30T08:07:44;15.40;;;9.10;;
72590;SDS011;60625;51.212;5.952;2022-07-30T08:12:54;11.70;;;7.60;;
72590;SDS011;60625;51.212;5.952;2022-07-30T08:18:37;12.80;;;7.90;;
72590;SDS011;60625;51.212;5.952;2022-07-30T08:23:46;16.30;;;8.00;;
72590;SDS011;60625;51.212;5.952;2022-07-30T08:28:46;12.10;;;5.40;;
72590;SDS011;60625;51.212;5.952;2022-07-30T08:33:47;11.00;;;5.50;;
72590;SDS011;60625;51.212;5.952;2022-07-30T08:38:47;14.10;;;6.20;;
72590;SDS011;60625;51.212;5.952;2022-07-30T08:43:49;13.50;;;4.80;;
72590;SDS011;60625;51.212;5.952;2022-07-30T08:48:51;11.50;;;5.30;;
72590;SDS011;60625;51.212;5.952;2022-07-30T08:53:52;9.50;;;5.10;;
72590;SDS011;60625;51.212;5.952;2022-07-30T08:58:56;7.80;;;4.10;;
72590;SDS011;60625;51.212;5.952;2022-07-30T09:04:02;7.90;;;3.90;;
72590;SDS011;60625;51.212;5.952;2022-07-30T09:09:03;10.10;;;4.20;;
72590;SDS011;60625;51.212;5.952;2022-07-30T09:14:08;10.20;;;4.30;;
72590;SDS011;60625;51.212;5.952;2022-07-30T09:19:15;12.00;;;4.50;;
72590;SDS011;60625;51.212;5.952;2022-07-30T09:24:21;9.80;;;4.00;;
72590;SDS011;60625;51.212;5.952;2022-07-30T09:29:40;6.60;;;2.60;;
72590;SDS011;60625;51.212;5.952;2022-07-30T09:35:11;10.50;;;3.80;;
72590;SDS011;60625;51.212;5.952;2022-07-30T09:40:56;8.40;;;2.80;;
72590;SDS011;60625;51.212;5.952;2022-07-30T09:46:16;5.60;;;2.40;;
72590;SDS011;60625;51.212;5.952;2022-07-30T09:51:17;6.70;;;2.80;;
72590;SDS011;60625;51.212;5.952;2022-07-30T09:56:25;7.30;;;3.00;;
72590;SDS011;60625;51.212;5.952;2022-07-30T10:01:27;6.70;;;2.60;;
72590;SDS011;60625;51.212;5.952;2022-07-30T10:06:56;7.50;;;3.20;;
72590;SDS011;60625;51.212;5.952;2022-07-30T10:12:05;6.10;;;2.20;;
72590;SDS011;60625;51.212;5.952;2022-07-30T10:17:10;12.10;;;3.00;;
72590;SDS011;60625;51.212;5.952;2022-07-30T10:22:12;6.00;;;2.80;;
72590;SDS011;60625;51.212;5.952;2022-07-30T10:27:32;5.70;;;2.90;;
72590;SDS011;60625;51.212;5.952;2022-07-30T10:32:58;3.80;;;1.80;;
72590;SDS011;60625;51.212;5.952;2022-07-30T10:37:59;8.00;;;2.20;;
72590;SDS011;60625;51.212;5.952;2022-07-30T10:43:46;7.30;;;3.00;;
72590;SDS011;60625;51.212;5.952;2022-07-30T10:49:14;7.10;;;2.30;;
72590;SDS011;60625;51.212;5.952;2022-07-30T10:54:38;4.00;;;2.00;;
72590;SDS011;60625;51.212;5.952;2022-07-30T11:10:37;5.80;;;1.90;;
72590;SDS011;60625;51.212;5.952;2022-07-30T11:15:58;6.20;;;2.00;;
72590;SDS011;60625;51.212;5.952;2022-07-30T11:21:18;6.60;;;2.40;;
72590;SDS011;60625;51.212;5.952;2022-07-30T11:31:38;5.10;;;1.40;;
72590;SDS011;60625;51.212;5.952;2022-07-30T11:37:09;10.70;;;2.10;;
72590;SDS011;60625;51.212;5.952;2022-07-30T11:42:33;4.30;;;1.40;;
72590;SDS011;60625;51.212;5.952;2022-07-30T11:47:34;5.50;;;1.70;;
72590;SDS011;60625;51.212;5.952;2022-07-30T11:52:35;6.50;;;2.20;;
72590;SDS011;60625;51.212;5.952;2022-07-30T11:57:39;6.40;;;2.20;;
72590;SDS011;60625;51.212;5.952;2022-07-30T12:02:40;7.00;;;2.00;;
72590;SDS011;60625;51.212;5.952;2022-07-30T12:07:41;4.60;;;1.80;;
72590;SDS011;60625;51.212;5.952;2022-07-30T12:12:43;6.30;;;1.90;;
72590;SDS011;60625;51.212;5.952;2022-07-30T12:17:44;5.30;;;1.70;;
72590;SDS011;60625;51.212;5.952;2022-07-30T12:22:48;5.70;;;2.10;;
72590;SDS011;60625;51.212;5.952;2022-07-30T12:27:48;7.50;;;2.30;;
72590;SDS011;60625;51.212;5.952;2022-07-30T12:32:49;6.50;;;1.90;;
72590;SDS011;60625;51.212;5.952;2022-07-30T12:38:03;5.10;;;2.00;;
72590;SDS011;60625;51.212;5.952;2022-07-30T12:43:04;6.10;;;1.90;;
72590;SDS011;60625;51.212;5.952;2022-07-30T12:48:11;9.10;;;2.30;;
72590;SDS011;60625;51.212;5.952;2022-07-30T12:53:11;6.00;;;2.00;;
72590;SDS011;60625;51.212;5.952;2022-07-30T12:58:12;9.60;;;2.10;;
72590;SDS011;60625;51.212;5.952;2022-07-30T13:03:27;9.00;;;2.50;;
72590;SDS011;60625;51.212;5.952;2022-07-30T13:13:52;5.50;;;2.20;;
72590;SDS011;60625;51.212;5.952;2022-07-30T13:18:53;6.60;;;2.30;;
72590;SDS011;60625;51.212;5.952;2022-07-30T13:23:53;5.70;;;1.50;;
72590;SDS011;60625;51.212;5.952;2022-07-30T13:28:55;11.00;;;2.00;;
72590;SDS011;60625;51.212;5.952;2022-07-30T13:33:56;6.10;;;2.00;;
72590;SDS011;60625;51.212;5.952;2022-07-30T13:38:56;7.20;;;1.40;;
72590;SDS011;60625;51.212;5.952;2022-07-30T13:43:57;5.20;;;1.50;;
72590;SDS011;60625;51.212;5.952;2022-07-30T13:48:58;5.00;;;2.00;;
72590;SDS011;60625;51.212;5.952;2022-07-30T13:53:59;5.50;;;2.00;;
72590;SDS011;60625;51.212;5.952;2022-07-30T13:58:59;5.90;;;1.50;;
72590;SDS011;60625;51.212;5.952;2022-07-30T14:04:00;5.30;;;1.80;;
72590;SDS011;60625;51.212;5.952;2022-07-30T14:09:01;6.90;;;1.50;;
72590;SDS011;60625;51.212;5.952;2022-07-30T14:14:02;8.60;;;1.80;;
72590;SDS011;60625;51.212;5.952;2022-07-30T14:19:03;6.30;;;1.70;;
72590;SDS011;60625;51.212;5.952;2022-07-30T14:24:04;5.80;;;1.70;;
72590;SDS011;60625;51.212;5.952;2022-07-30T14:29:05;5.00;;;1.50;;
72590;SDS011;60625;51.212;5.952;2022-07-30T14:34:06;5.30;;;1.60;;
72590;SDS011;60625;51.212;5.952;2022-07-30T14:39:09;6.20;;;1.80;;
72590;SDS011;60625;51.212;5.952;2022-07-30T14:44:10;4.30;;;1.20;;
72590;SDS011;60625;51.212;5.952;2022-07-30T14:49:12;5.70;;;1.60;;
72590;SDS011;60625;51.212;5.952;2022-07-30T14:54:15;5.50;;;2.40;;
72590;SDS011;60625;51.212;5.952;2022-07-30T14:59:16;4.30;;;1.70;;
72590;SDS011;60625;51.212;5.952;2022-07-30T15:04:18;4.90;;;1.80;;
72590;SDS011;60625;51.212;5.952;2022-07-30T15:09:19;6.20;;;2.00;;
72590;SDS011;60625;51.212;5.952;2022-07-30T15:14:19;4.40;;;1.70;;
72590;SDS011;60625;51.212;5.952;2022-07-30T15:19:20;7.10;;;1.70;;
72590;SDS011;60625;51.212;5.952;2022-07-30T15:24:21;6.20;;;2.30;;
72590;SDS011;60625;51.212;5.952;2022-07-30T15:29:21;6.50;;;2.20;;
72590;SDS011;60625;51.212;5.952;2022-07-30T15:34:23;5.80;;;2.20;;
72590;SDS011;60625;51.212;5.952;2022-07-30T15:39:23;6.30;;;1.30;;
72590;SDS011;60625;51.212;5.952;2022-07-30T15:44:24;4.20;;;2.00;;
72590;SDS011;60625;51.212;5.952;2022-07-30T15:49:26;5.30;;;1.50;;
72590;SDS011;60625;51.212;5.952;2022-07-30T15:54:30;6.70;;;2.10;;
72590;SDS011;60625;51.212;5.952;2022-07-30T15:59:30;3.70;;;1.60;;
72590;SDS011;60625;51.212;5.952;2022-07-30T16:04:31;7.80;;;2.10;;
72590;SDS011;60625;51.212;5.952;2022-07-30T16:09:35;4.90;;;2.10;;
72590;SDS011;60625;51.212;5.952;2022-07-30T16:14:35;5.00;;;1.80;;
72590;SDS011;60625;51.212;5.952;2022-07-30T16:19:36;6.70;;;2.40;;
72590;SDS011;60625;51.212;5.952;2022-07-30T16:24:36;4.80;;;2.20;;
72590;SDS011;60625;51.212;5.952;2022-07-30T16:29:37;5.80;;;1.60;;
72590;SDS011;60625;51.212;5.952;2022-07-30T16:34:37;5.50;;;1.90;;
72590;SDS011;60625;51.212;5.952;2022-07-30T16:39:38;5.80;;;1.70;;
72590;SDS011;60625;51.212;5.952;2022-07-30T16:44:38;5.60;;;2.20;;
72590;SDS011;60625;51.212;5.952;2022-07-30T16:49:39;4.10;;;1.60;;
72590;SDS011;60625;51.212;5.952;2022-07-30T16:54:40;5.40;;;2.10;;
72590;SDS011;60625;51.212;5.952;2022-07-30T16:59:40;9.00;;;1.30;;
72590;SDS011;60625;51.212;5.952;2022-07-30T17:04:41;6.90;;;1.70;;
72590;SDS011;60625;51.212;5.952;2022-07-30T17:09:42;6.10;;;1.80;;
72590;SDS011;60625;51.212;5.952;2022-07-30T17:14:42;5.20;;;1.80;;
72590;SDS011;60625;51.212;5.952;2022-07-30T17:19:43;8.40;;;1.70;;
72590;SDS011;60625;51.212;5.952;2022-07-30T17:24:43;4.60;;;1.50;;
72590;SDS011;60625;51.212;5.952;2022-07-30T17:29:43;4.80;;;1.60;;
72590;SDS011;60625;51.212;5.952;2022-07-30T17:34:45;8.10;;;2.00;;
72590;SDS011;60625;51.212;5.952;2022-07-30T17:39:46;5.20;;;1.50;;
72590;SDS011;60625;51.212;5.952;2022-07-30T17:44:47;5.40;;;2.00;;
72590;SDS011;60625;51.212;5.952;2022-07-30T17:49:48;6.00;;;1.40;;
72590;SDS011;60625;51.212;5.952;2022-07-30T17:54:48;3.90;;;1.40;;
72590;SDS011;60625;51.212;5.952;2022-07-30T17:59:49;4.00;;;1.40;;
72590;SDS011;60625;51.212;5.952;2022-07-30T18:04:49;7.40;;;2.00;;
72590;SDS011;60625;51.212;5.952;2022-07-30T18:09:49;5.60;;;1.20;;
72590;SDS011;60625;51.212;5.952;2022-07-30T18:14:50;7.80;;;1.70;;
72590;SDS011;60625;51.212;5.952;2022-07-30T18:19:51;6.70;;;1.30;;
72590;SDS011;60625;51.212;5.952;2022-07-30T18:24:52;9.40;;;1.70;;
72590;SDS011;60625;51.212;5.952;2022-07-30T18:29:52;6.10;;;1.70;;
72590;SDS011;60625;51.212;5.952;2022-07-30T18:34:53;6.30;;;1.90;;
72590;SDS011;60625;51.212;5.952;2022-07-30T18:39:53;5.50;;;1.60;;
72590;SDS011;60625;51.212;5.952;2022-07-30T18:44:56;6.10;;;2.10;;
72590;SDS011;60625;51.212;5.952;2022-07-30T18:49:57;8.00;;;2.00;;
72590;SDS011;60625;51.212;5.952;2022-07-30T18:54:57;7.30;;;2.10;;
72590;SDS011;60625;51.212;5.952;2022-07-30T18:59:57;6.80;;;1.60;;
72590;SDS011;60625;51.212;5.952;2022-07-30T19:04:58;5.70;;;2.10;;
72590;SDS011;60625;51.212;5.952;2022-07-30T19:09:59;19.60;;;2.10;;
72590;SDS011;60625;51.212;5.952;2022-07-30T19:14:59;4.50;;;1.70;;
72590;SDS011;60625;51.212;5.952;2022-07-30T19:20:01;5.40;;;2.00;;
72590;SDS011;60625;51.212;5.952;2022-07-30T19:25:02;7.70;;;1.70;;
72590;SDS011;60625;51.212;5.952;2022-07-30T19:30:06;5.80;;;1.60;;
72590;SDS011;60625;51.212;5.952;2022-07-30T19:35:07;5.20;;;1.80;;
72590;SDS011;60625;51.212;5.952;2022-07-30T19:40:08;6.90;;;2.00;;
72590;SDS011;60625;51.212;5.952;2022-07-30T19:45:10;6.20;;;1.80;;
72590;SDS011;60625;51.212;5.952;2022-07-30T19:50:11;6.80;;;1.80;;
72590;SDS011;60625;51.212;5.952;2022-07-30T19:55:11;6.20;;;2.00;;
72590;SDS011;60625;51.212;5.952;2022-07-30T20:00:12;5.80;;;1.80;;
72590;SDS011;60625;51.212;5.952;2022-07-30T20:05:15;4.20;;;1.70;;
72590;SDS011;60625;51.212;5.952;2022-07-30T20:10:16;7.50;;;2.20;;
72590;SDS011;60625;51.212;5.952;2022-07-30T20:15:17;5.40;;;2.10;;
72590;SDS011;60625;51.212;5.952;2022-07-30T20:20:20;8.00;;;1.50;;
72590;SDS011;60625;51.212;5.952;2022-07-30T20:25:21;6.40;;;1.80;;
72590;SDS011;60625;51.212;5.952;2022-07-30T20:30:24;7.10;;;1.80;;
72590;SDS011;60625;51.212;5.952;2022-07-30T20:35:24;6.10;;;2.30;;
72590;SDS011;60625;51.212;5.952;2022-07-30T20:40:25;5.70;;;1.60;;
72590;SDS011;60625;51.212;5.952;2022-07-30T20:45:26;3.80;;;2.00;;
72590;SDS011;60625;51.212;5.952;2022-07-30T20:50:27;4.10;;;1.60;;
72590;SDS011;60625;51.212;5.952;2022-07-30T20:55:28;6.30;;;1.80;;
72590;SDS011;60625;51.212;5.952;2022-07-30T21:00:28;7.50;;;1.80;;
72590;SDS011;60625;51.212;5.952;2022-07-30T21:05:29;4.80;;;1.80;;
72590;SDS011;60625;51.212;5.952;2022-07-30T21:10:30;6.80;;;2.00;;
72590;SDS011;60625;51.212;5.952;2022-07-30T21:15:32;6.00;;;1.90;;
72590;SDS011;60625;51.212;5.952;2022-07-30T21:20:34;4.70;;;2.50;;
72590;SDS011;60625;51.212;5.952;2022-07-30T21:25:34;6.00;;;2.60;;
72590;SDS011;60625;51.212;5.952;2022-07-30T21:30:34;3.80;;;1.60;;
72590;SDS011;60625;51.212;5.952;2022-07-30T21:35:35;7.80;;;2.10;;
72590;SDS011;60625;51.212;5.952;2022-07-30T21:40:35;10.00;;;2.10;;
72590;SDS011;60625;51.212;5.952;2022-07-30T21:45:36;7.60;;;2.10;;
72590;SDS011;60625;51.212;5.952;2022-07-30T21:50:38;8.00;;;2.20;;
72590;SDS011;60625;51.212;5.952;2022-07-30T21:55:39;4.90;;;2.30;;
72590;SDS011;60625;51.212;5.952;2022-07-30T22:00:41;8.40;;;2.50;;
72590;SDS011;60625;51.212;5.952;2022-07-30T22:06:00;7.20;;;3.20;;
72590;SDS011;60625;51.212;5.952;2022-07-30T22:11:01;7.10;;;2.80;;
72590;SDS011;60625;51.212;5.952;2022-07-30T22:16:02;10.10;;;2.60;;
72590;SDS011;60625;51.212;5.952;2022-07-30T22:21:02;7.20;;;2.50;;
72590;SDS011;60625;51.212;5.952;2022-07-30T22:26:03;4.80;;;2.20;;
72590;SDS011;60625;51.212;5.952;2022-07-30T22:31:03;7.20;;;2.20;;
72590;SDS011;60625;51.212;5.952;2022-07-30T22:36:04;8.60;;;2.60;;
72590;SDS011;60625;51.212;5.952;2022-07-30T22:41:05;5.60;;;2.30;;
72590;SDS011;60625;51.212;5.952;2022-07-30T22:46:05;5.20;;;2.80;;
72590;SDS011;60625;51.212;5.952;2022-07-30T22:51:06;5.90;;;2.50;;
72590;SDS011;60625;51.212;5.952;2022-07-30T22:56:06;9.50;;;2.40;;
72590;SDS011;60625;51.212;5.952;2022-07-30T23:01:07;7.30;;;2.90;;
72590;SDS011;60625;51.212;5.952;2022-07-30T23:06:08;7.70;;;2.60;;
72590;SDS011;60625;51.212;5.952;2022-07-30T23:11:08;8.80;;;2.20;;
72590;SDS011;60625;51.212;5.952;2022-07-30T23:16:09;7.80;;;2.70;;
72590;SDS011;60625;51.212;5.952;2022-07-30T23:21:10;7.80;;;2.50;;
72590;SDS011;60625;51.212;5.952;2022-07-30T23:26:10;7.90;;;2.30;;
72590;SDS011;60625;51.212;5.952;2022-07-30T23:31:11;8.70;;;2.80;;
72590;SDS011;60625;51.212;5.952;2022-07-30T23:36:11;5.60;;;2.70;;
72590;SDS011;60625;51.212;5.952;2022-07-30T23:41:12;5.60;;;2.70;;
72590;SDS011;60625;51.212;5.952;2022-07-30T23:46:13;6.10;;;3.00;;
72590;SDS011;60625;51.212;5.952;2022-07-30T23:51:14;9.30;;;3.20;;
72590;SDS011;60625;51.212;5.952;2022-07-30T23:56:15;8.40;;;3.40;;
